Time;durP1;ratioP1;P1;durP2;ratioP2;P2;SDS_P1;SDS_P2;PMS_P1;PMS_P2;Temp;Humidity;BMP_temperature;BMP_pressure;BME280_temperature;BME280_humidity;BME280_pressure;Samples;Min_cycle;Max_cycle;Signal;HPM_P1;HPM_P2
2022/03/27 00:01:51;;;;;;;;;;;4.80;97.80;;;;;;5030982;28;19920;-75
2022/03/27 00:04:16;;;;;;;;;;;4.90;98.20;;;;;;5032091;28;20016;-74
2022/03/27 00:06:42;;;;;;;;;;;4.90;97.50;;;;;;5032551;28;19932;-73
2022/03/27 00:09:07;;;;;;;;;;;4.80;98.20;;;;;;5032195;28;19932;-73
2022/03/27 00:11:34;;;;;;;;;;;4.70;97.90;;;;;;5032294;28;19913;-73
2022/03/27 00:14:01;;;;;;;;;;;4.60;97.30;;;;;;5032387;28;19917;-75
2022/03/27 00:16:26;;;;;;;;;;;5.10;97.60;;;;;;5030658;28;19909;-74
2022/03/27 00:18:52;;;;;;;;;;;4.70;97.40;;;;;;5031978;28;19909;-74
2022/03/27 00:21:17;;;;;;;;;;;4.60;97.20;;;;;;5047166;28;19920;-74
2022/03/27 00:23:47;;;;;;;;;;;4.50;97.10;;;;;;5032164;28;20421;-75
2022/03/27 00:26:13;;;;;;;;;;;4.50;97.10;;;;;;5031812;28;19963;-74
2022/03/27 00:28:39;;;;;;;;;;;4.50;97.10;;;;;;5046902;28;19917;-74
2022/03/27 00:31:06;;;;;;;;;;;4.40;97.30;;;;;;5047109;28;19910;-74
2022/03/27 00:33:32;;;;;;;;;;;4.30;97.40;;;;;;5031705;28;19996;-74
2022/03/27 00:35:59;;;;;;;;;;;4.40;97.30;;;;;;5031961;28;19929;-74
2022/03/27 00:38:25;;;;;;;;;;;4.40;96.90;;;;;;5031718;28;20331;-74
2022/03/27 00:40:51;;;;;;;;;;;4.40;97.10;;;;;;5030429;28;19943;-74
2022/03/27 00:43:17;;;;;;;;;;;4.40;97.20;;;;;;5031636;28;19921;-73
2022/03/27 00:45:43;;;;;;;;;;;4.40;96.80;;;;;;5046918;28;20340;-73
2022/03/27 00:48:09;;;;;;;;;;;4.20;96.80;;;;;;5031730;28;19917;-74
2022/03/27 00:50:34;;;;;;;;;;;4.20;96.90;;;;;;5031168;28;20395;-74
2022/03/27 00:53:00;;;;;;;;;;;4.20;96.70;;;;;;5046879;28;19921;-74
2022/03/27 00:55:26;;;;;;;;;;;4.10;96.90;;;;;;5046955;28;20362;-74
2022/03/27 00:57:51;;;;;;;;;;;4.00;96.70;;;;;;5031602;28;20353;-74
2022/03/27 01:00:36;;;;;;;;;;;4.00;96.90;;;;;;5046710;28;19921;-74
2022/03/27 01:03:03;;;;;;;;;;;4.00;97.00;;;;;;5031427;28;19909;-74
2022/03/27 01:05:29;;;;;;;;;;;4.00;97.00;;;;;;5046795;28;19928;-74
2022/03/27 01:07:55;;;;;;;;;;;4.00;97.00;;;;;;5046679;28;20445;-75
2022/03/27 01:10:22;;;;;;;;;;;4.00;96.90;;;;;;5031499;28;19921;-74
2022/03/27 01:12:48;;;;;;;;;;;3.90;96.70;;;;;;5029933;28;20007;-75
2022/03/27 01:15:23;;;;;;;;;;;3.90;97.00;;;;;;5031566;28;20453;-72
2022/03/27 01:17:49;;;;;;;;;;;3.90;97.30;;;;;;5031383;28;20289;-74
2022/03/27 01:20:34;;;;;;;;;;;3.80;97.00;;;;;;5031664;28;19918;-75
2022/03/27 01:23:00;;;;;;;;;;;3.80;97.50;;;;;;5031635;28;20020;-74
2022/03/27 01:25:26;;;;;;;;;;;3.80;97.10;;;;;;5031690;28;19918;-74
2022/03/27 01:27:52;;;;;;;;;;;3.70;97.20;;;;;;5031274;28;19924;-72
2022/03/27 01:30:17;;;;;;;;;;;3.80;97.20;;;;;;5031247;28;19921;-73
2022/03/27 01:32:43;;;;;;;;;;;3.80;97.10;;;;;;5031141;28;19909;-73
2022/03/27 01:35:10;;;;;;;;;;;3.70;97.40;;;;;;5031570;28;19921;-73
2022/03/27 01:37:36;;;;;;;;;;;3.70;97.80;;;;;;5046293;28;19909;-72
2022/03/27 01:40:02;;;;;;;;;;;3.70;97.90;;;;;;5031372;28;19917;-74
2022/03/27 01:42:27;;;;;;;;;;;3.80;98.10;;;;;;5030966;28;20306;-74
2022/03/27 01:44:53;;;;;;;;;;;3.70;98.20;;;;;;5031571;28;19990;-75
2022/03/27 01:47:19;;;;;;;;;;;3.70;98.50;;;;;;5030907;28;19913;-73
2022/03/27 01:49:45;;;;;;;;;;;3.70;98.70;;;;;;5029679;28;20253;-74
2022/03/27 01:52:11;;;;;;;;;;;3.70;99.10;;;;;;5030900;28;20281;-74
2022/03/27 01:54:36;;;;;;;;;;;3.70;99.50;;;;;;5031090;28;19924;-74
2022/03/27 01:57:02;;;;;;;;;;;3.70;99.70;;;;;;5030843;28;19909;-74
2022/03/27 01:59:28;;;;;;;;;;;3.70;99.90;;;;;;5031411;28;19917;-74
2022/03/27 02:01:54;;;;;;;;;;;3.70;99.90;;;;;;5031041;28;19967;-74
2022/03/27 02:04:19;;;;;;;;;;;3.70;99.90;;;;;;5048872;28;19925;-74
2022/03/27 02:06:45;;;;;;;;;;;3.70;99.90;;;;;;5034688;28;20442;-74
2022/03/27 02:09:12;;;;;;;;;;;3.70;99.90;;;;;;5033294;28;20362;-73
2022/03/27 02:11:42;;;;;;;;;;;3.70;99.90;;;;;;5033617;28;19909;-74
2022/03/27 02:14:08;;;;;;;;;;;3.60;99.90;;;;;;5033233;28;20373;-75
2022/03/27 02:16:34;;;;;;;;;;;3.60;99.90;;;;;;5034447;28;19953;-73
2022/03/27 02:19:00;;;;;;;;;;;3.50;99.90;;;;;;5033581;28;19964;-73
2022/03/27 02:21:25;;;;;;;;;;;3.50;99.90;;;;;;5034417;28;19909;-74
2022/03/27 02:23:51;;;;;;;;;;;3.50;99.90;;;;;;5034352;28;19909;-73
2022/03/27 02:26:17;;;;;;;;;;;3.40;99.90;;;;;;5049651;28;20325;-73
2022/03/27 02:28:43;;;;;;;;;;;3.40;99.90;;;;;;5032561;28;19920;-74
2022/03/27 02:31:08;;;;;;;;;;;3.40;99.90;;;;;;5034084;28;19909;-74
2022/03/27 02:33:35;;;;;;;;;;;3.40;99.90;;;;;;5033928;28;19913;-74
2022/03/27 02:36:01;;;;;;;;;;;3.40;99.90;;;;;;5032814;28;19917;-75
2022/03/27 02:38:27;;;;;;;;;;;3.50;99.90;;;;;;5032591;28;19909;-74
2022/03/27 02:40:53;;;;;;;;;;;3.30;99.90;;;;;;5049518;28;20115;-72
2022/03/27 02:43:18;;;;;;;;;;;3.30;99.90;;;;;;5032523;28;19948;-73
2022/03/27 02:45:44;;;;;;;;;;;3.40;99.90;;;;;;5034359;28;19959;-74
2022/03/27 02:48:10;;;;;;;;;;;3.90;99.90;;;;;;5032399;28;19913;-74
2022/03/27 02:50:38;;;;;;;;;;;3.30;99.90;;;;;;5032670;28;19939;-74
2022/03/27 02:53:04;;;;;;;;;;;4.10;99.90;;;;;;5033491;28;19913;-73
2022/03/27 02:55:30;;;;;;;;;;;3.30;99.90;;;;;;5032177;28;20019;-74
2022/03/27 02:57:56;;;;;;;;;;;3.30;99.90;;;;;;5032346;28;19935;-73
2022/03/27 03:00:22;;;;;;;;;;;3.30;99.90;;;;;;5032292;28;19917;-74
2022/03/27 03:02:47;;;;;;;;;;;3.30;99.90;;;;;;5048596;28;19940;-73
2022/03/27 03:05:13;;;;;;;;;;;3.20;99.90;;;;;;5033598;28;19991;-73
2022/03/27 03:07:41;;;;;;;;;;;3.10;99.90;;;;;;5033083;28;20316;-73
2022/03/27 03:10:07;;;;;;;;;;;3.10;99.90;;;;;;5033639;28;20003;-74
2022/03/27 03:12:32;;;;;;;;;;;3.10;99.90;;;;;;5033341;28;19916;-74
2022/03/27 03:14:58;;;;;;;;;;;3.00;99.90;;;;;;5033349;28;19925;-74
2022/03/27 03:17:23;;;;;;;;;;;3.00;99.90;;;;;;5033269;28;20055;-73
2022/03/27 03:19:49;;;;;;;;;;;3.00;99.90;;;;;;5033393;28;19948;-74
2022/03/27 03:22:14;;;;;;;;;;;3.00;99.90;;;;;;5033029;28;19995;-73
2022/03/27 03:24:40;;;;;;;;;;;3.00;99.90;;;;;;5032936;28;20400;-74
2022/03/27 03:27:06;;;;;;;;;;;3.10;99.90;;;;;;5032909;28;20000;-73
2022/03/27 03:29:33;;;;;;;;;;;3.10;99.90;;;;;;5033049;28;20035;-74
2022/03/27 03:31:58;;;;;;;;;;;3.00;99.90;;;;;;5032860;28;19925;-74
2022/03/27 03:34:24;;;;;;;;;;;3.00;99.90;;;;;;5048214;28;19917;-74
2022/03/27 03:36:49;;;;;;;;;;;3.10;99.90;;;;;;5032712;28;19913;-74
2022/03/27 03:39:15;;;;;;;;;;;3.10;99.90;;;;;;5031333;28;20312;-74
2022/03/27 03:41:40;;;;;;;;;;;2.90;99.90;;;;;;5031439;28;19913;-74
2022/03/27 03:44:07;;;;;;;;;;;3.00;99.90;;;;;;5033037;28;19920;-74
2022/03/27 03:46:33;;;;;;;;;;;3.00;99.90;;;;;;5031607;28;19913;-75
2022/03/27 03:48:59;;;;;;;;;;;2.90;99.90;;;;;;5032561;28;20350;-73
2022/03/27 03:51:24;;;;;;;;;;;2.90;99.90;;;;;;5032856;28;19924;-74
2022/03/27 03:53:50;;;;;;;;;;;3.10;99.90;;;;;;5032453;28;20307;-74
2022/03/27 03:56:15;;;;;;;;;;;2.80;99.90;;;;;;5032422;28;19913;-74
2022/03/27 03:58:41;;;;;;;;;;;2.90;99.90;;;;;;5047613;28;19909;-73
2022/03/27 04:01:07;;;;;;;;;;;3.00;99.90;;;;;;5032392;28;19913;-73
2022/03/27 04:03:32;;;;;;;;;;;3.00;99.90;;;;;;5031993;28;19916;-75
2022/03/27 04:05:58;;;;;;;;;;;3.00;99.90;;;;;;5032212;28;20384;-74
2022/03/27 04:08:24;;;;;;;;;;;3.00;99.90;;;;;;5032138;28;20008;-74
2022/03/27 04:10:49;;;;;;;;;;;2.90;99.90;;;;;;5032743;28;20256;-73
2022/03/27 04:13:15;;;;;;;;;;;2.90;99.90;;;;;;5030890;28;19913;-73
2022/03/27 04:15:40;;;;;;;;;;;2.90;99.90;;;;;;5047973;28;20451;-73
2022/03/27 04:18:06;;;;;;;;;;;2.90;99.90;;;;;;5047283;28;19999;-74
2022/03/27 04:20:32;;;;;;;;;;;3.00;99.90;;;;;;5032048;28;19924;-74
2022/03/27 04:22:58;;;;;;;;;;;2.70;99.90;;;;;;5047509;28;19909;-74
2022/03/27 04:25:24;;;;;;;;;;;2.90;99.90;;;;;;5030536;28;19932;-74
2022/03/27 04:27:49;;;;;;;;;;;3.30;99.90;;;;;;5047247;28;19913;-74
2022/03/27 04:30:15;;;;;;;;;;;2.90;99.90;;;;;;5032140;28;20003;-74
2022/03/27 04:32:41;;;;;;;;;;;2.80;99.90;;;;;;5047305;28;20383;-74
2022/03/27 04:35:07;;;;;;;;;;;2.80;99.90;;;;;;5032072;28;20254;-73
2022/03/27 04:37:42;;;;;;;;;;;2.80;99.90;;;;;;5031779;28;19909;-73
2022/03/27 04:40:08;;;;;;;;;;;2.70;99.90;;;;;;5032174;28;19921;-73
2022/03/27 04:42:34;;;;;;;;;;;2.50;99.90;;;;;;5030516;28;19948;-74
2022/03/27 04:44:59;;;;;;;;;;;2.40;99.90;;;;;;5030778;28;19960;-74
2022/03/27 04:47:25;;;;;;;;;;;2.10;99.90;;;;;;5030468;28;20349;-73
2022/03/27 04:49:51;;;;;;;;;;;2.00;99.90;;;;;;5031652;28;19971;-73
2022/03/27 04:52:17;;;;;;;;;;;1.90;99.90;;;;;;5030471;28;19996;-73
2022/03/27 04:54:42;;;;;;;;;;;1.80;99.90;;;;;;5031955;28;20284;-74
2022/03/27 04:57:08;;;;;;;;;;;1.80;99.90;;;;;;5031855;28;19919;-74
2022/03/27 04:59:33;;;;;;;;;;;1.80;99.90;;;;;;5031570;28;19921;-74
2022/03/27 05:01:59;;;;;;;;;;;2.60;99.90;;;;;;5031279;28;19913;-74
2022/03/27 05:04:25;;;;;;;;;;;1.80;99.90;;;;;;5031157;28;20365;-74
2022/03/27 05:06:51;;;;;;;;;;;1.80;99.90;;;;;;5031605;28;20361;-73
2022/03/27 05:09:18;;;;;;;;;;;1.80;99.90;;;;;;5031249;28;19928;-75
2022/03/27 05:11:44;;;;;;;;;;;1.90;99.90;;;;;;5046643;28;19917;-74
2022/03/27 05:14:10;;;;;;;;;;;1.90;99.90;;;;;;5031163;28;19968;-74
2022/03/27 05:16:36;;;;;;;;;;;2.00;99.90;;;;;;5029974;28;20361;-74
2022/03/27 05:19:04;;;;;;;;;;;2.00;99.90;;;;;;5046491;28;19913;-74
2022/03/27 05:21:30;;;;;;;;;;;2.10;99.90;;;;;;5031425;28;19967;-74
2022/03/27 05:23:55;;;;;;;;;;;2.10;99.90;;;;;;5029988;28;20352;-75
2022/03/27 05:26:21;;;;;;;;;;;2.10;99.90;;;;;;5046624;28;19959;-73
2022/03/27 05:28:47;;;;;;;;;;;2.10;99.90;;;;;;5031471;28;19913;-73
2022/03/27 05:31:12;;;;;;;;;;;2.20;99.90;;;;;;5030273;28;20284;-73
2022/03/27 05:33:38;;;;;;;;;;;2.20;99.90;;;;;;5029715;28;19909;-73
2022/03/27 05:36:04;;;;;;;;;;;2.30;99.90;;;;;;5030895;28;20016;-74
2022/03/27 05:38:30;;;;;;;;;;;2.50;99.90;;;;;;5032464;28;19913;-73
2022/03/27 05:40:55;;;;;;;;;;;2.50;99.90;;;;;;5035247;28;19924;-73
2022/03/27 05:43:21;;;;;;;;;;;2.50;99.90;;;;;;5033517;28;20365;-72
2022/03/27 05:45:47;;;;;;;;;;;2.50;99.90;;;;;;5033346;28;19928;-73
2022/03/27 05:48:13;;;;;;;;;;;2.50;99.90;;;;;;5039474;28;19917;-69
2022/03/27 05:50:39;;;;;;;;;;;2.60;99.90;;;;;;5048787;28;19917;-68
2022/03/27 05:53:05;;;;;;;;;;;2.70;99.90;;;;;;5047732;28;19916;-67
2022/03/27 05:55:30;;;;;;;;;;;2.80;99.90;;;;;;5047453;28;20473;-67
2022/03/27 05:57:56;;;;;;;;;;;3.00;99.90;;;;;;5048677;28;20290;-68
2022/03/27 06:00:21;;;;;;;;;;;3.40;99.90;;;;;;5041384;28;20381;-67
2022/03/27 06:02:48;;;;;;;;;;;3.50;99.90;;;;;;5036369;28;19949;-69
2022/03/27 06:05:13;;;;;;;;;;;3.70;99.90;;;;;;5040929;28;19928;-67
2022/03/27 06:07:45;;;;;;;;;;;3.80;99.90;;;;;;5041245;28;19925;-68
2022/03/27 06:10:11;;;;;;;;;;;4.40;99.90;;;;;;5048040;28;20337;-68
2022/03/27 06:12:38;;;;;;;;;;;4.10;99.90;;;;;;5049689;28;19928;-68
2022/03/27 06:15:04;;;;;;;;;;;4.30;99.90;;;;;;5042327;28;19917;-68
2022/03/27 06:17:29;;;;;;;;;;;4.40;99.90;;;;;;5034042;28;19913;-68
2022/03/27 06:19:55;;;;;;;;;;;4.20;99.90;;;;;;5036429;28;19926;-67
2022/03/27 06:22:20;;;;;;;;;;;4.20;99.90;;;;;;5051981;28;19913;-67
2022/03/27 06:24:46;;;;;;;;;;;4.40;99.90;;;;;;5052643;28;19917;-67
2022/03/27 06:27:12;;;;;;;;;;;4.50;99.90;;;;;;5053549;28;19913;-68
2022/03/27 06:29:37;;;;;;;;;;;4.40;99.90;;;;;;5052621;28;19986;-67
2022/03/27 06:32:03;;;;;;;;;;;4.30;99.90;;;;;;5065790;28;19909;-69
2022/03/27 06:34:30;;;;;;;;;;;4.20;99.90;;;;;;5065754;28;20016;-67
2022/03/27 06:36:55;;;;;;;;;;;4.20;99.90;;;;;;5054315;28;19908;-68
2022/03/27 06:39:21;;;;;;;;;;;4.20;99.90;;;;;;5053812;28;19924;-68
2022/03/27 06:41:47;;;;;;;;;;;3.90;99.90;;;;;;5053625;28;19908;-68
2022/03/27 06:44:13;;;;;;;;;;;3.70;99.90;;;;;;5049512;28;19917;-67
2022/03/27 06:46:39;;;;;;;;;;;3.30;99.90;;;;;;5042928;28;20416;-68
2022/03/27 06:49:05;;;;;;;;;;;3.20;99.90;;;;;;5049628;28;20011;-67
2022/03/27 06:51:31;;;;;;;;;;;3.40;99.90;;;;;;5034165;28;19915;-68
2022/03/27 06:53:57;;;;;;;;;;;3.60;99.50;;;;;;5040178;28;19927;-68
2022/03/27 06:56:23;;;;;;;;;;;3.60;99.00;;;;;;5056302;28;19921;-68
2022/03/27 06:58:48;;;;;;;;;;;3.40;98.50;;;;;;5050956;28;20363;-67
2022/03/27 07:03:58;;;;;;;;;;;4.20;98.20;;;;;;5049154;28;20058;-68
2022/03/27 07:06:24;;;;;;;;;;;4.40;96.60;;;;;;5047336;28;20347;-68
2022/03/27 07:08:49;;;;;;;;;;;4.20;96.30;;;;;;5040378;28;19921;-68
2022/03/27 07:11:15;;;;;;;;;;;4.00;96.60;;;;;;5050059;28;19913;-74
2022/03/27 07:13:41;;;;;;;;;;;3.90;97.10;;;;;;5051639;28;20228;-74
2022/03/27 07:16:07;;;;;;;;;;;3.70;97.60;;;;;;5050891;28;19944;-75
2022/03/27 07:18:33;;;;;;;;;;;3.50;97.30;;;;;;5053245;28;19951;-75
2022/03/27 07:20:59;;;;;;;;;;;3.50;97.10;;;;;;5053450;28;19928;-74
2022/03/27 07:23:25;;;;;;;;;;;3.20;97.00;;;;;;5051840;28;20284;-75
2022/03/27 07:25:56;;;;;;;;;;;2.90;96.80;;;;;;5052978;28;19925;-74
2022/03/27 07:28:22;;;;;;;;;;;2.70;97.30;;;;;;5051496;28;20372;-74
2022/03/27 07:30:48;;;;;;;;;;;2.70;97.20;;;;;;5053515;28;19971;-74
2022/03/27 07:33:14;;;;;;;;;;;2.70;97.20;;;;;;5052723;28;19912;-75
2022/03/27 07:35:40;;;;;;;;;;;2.90;96.80;;;;;;5053398;28;20216;-74
2022/03/27 07:38:07;;;;;;;;;;;3.10;96.40;;;;;;5053083;28;19959;-75
2022/03/27 07:40:33;;;;;;;;;;;2.60;95.10;;;;;;5053007;28;19920;-75
2022/03/27 07:42:59;;;;;;;;;;;3.80;95.10;;;;;;5052764;28;20280;-75
2022/03/27 07:45:28;;;;;;;;;;;4.20;93.60;;;;;;5051639;28;19916;-74
2022/03/27 07:47:54;;;;;;;;;;;4.60;93.20;;;;;;5052581;28;20284;-74
2022/03/27 07:50:21;;;;;;;;;;;4.70;92.80;;;;;;5051406;28;19940;-75
2022/03/27 07:52:47;;;;;;;;;;;4.50;92.70;;;;;;5051079;28;19963;-75
2022/03/27 07:55:14;;;;;;;;;;;4.40;92.60;;;;;;5052909;28;19968;-74
2022/03/27 07:57:40;;;;;;;;;;;4.20;92.70;;;;;;5051119;28;20262;-75
2022/03/27 08:00:08;;;;;;;;;;;4.40;92.90;;;;;;5052422;28;19989;-72
2022/03/27 08:02:34;;;;;;;;;;;4.40;92.50;;;;;;5051332;28;19916;-72
2022/03/27 08:04:59;;;;;;;;;;;4.30;92.40;;;;;;5051728;28;19925;-73
2022/03/27 08:07:25;;;;;;;;;;;4.20;92.70;;;;;;5051909;28;19916;-71
2022/03/27 08:09:52;;;;;;;;;;;4.00;93.10;;;;;;5050884;28;19913;-73
2022/03/27 08:12:20;;;;;;;;;;;3.80;93.60;;;;;;5050613;28;19914;-72
2022/03/27 08:14:48;;;;;;;;;;;4.00;94.20;;;;;;5052041;28;20353;-72
2022/03/27 08:17:15;;;;;;;;;;;4.20;94.20;;;;;;5051845;28;19927;-72
2022/03/27 08:19:42;;;;;;;;;;;4.20;94.60;;;;;;5050607;28;19919;-71
2022/03/27 08:22:09;;;;;;;;;;;4.00;95.20;;;;;;5050287;28;19926;-72
2022/03/27 08:24:34;;;;;;;;;;;3.90;95.60;;;;;;5050498;28;19933;-71
2022/03/27 08:27:02;;;;;;;;;;;3.80;95.50;;;;;;5051762;28;20030;-72
2022/03/27 08:29:31;;;;;;;;;;;3.80;95.90;;;;;;5051940;28;19960;-72
2022/03/27 08:32:01;;;;;;;;;;;3.60;96.30;;;;;;5051544;28;19955;-72
2022/03/27 08:34:28;;;;;;;;;;;3.40;96.70;;;;;;5051795;28;20007;-72
2022/03/27 08:36:54;;;;;;;;;;;3.10;97.30;;;;;;5051644;28;19971;-72
2022/03/27 08:39:23;;;;;;;;;;;2.90;98.10;;;;;;5051819;28;19959;-72
2022/03/27 08:41:49;;;;;;;;;;;2.90;97.60;;;;;;5050267;28;19913;-72
2022/03/27 08:44:18;;;;;;;;;;;3.10;97.80;;;;;;5050182;28;19917;-72
2022/03/27 08:46:44;;;;;;;;;;;3.30;97.10;;;;;;5050514;28;19913;-71
2022/03/27 08:49:29;;;;;;;;;;;3.40;97.10;;;;;;5051503;28;19928;-71
2022/03/27 08:52:04;;;;;;;;;;;3.80;95.80;;;;;;5050249;28;20344;-74
2022/03/27 08:54:45;;;;;;;;;;;4.20;94.70;;;;;;5050092;28;19912;-71
2022/03/27 08:57:22;;;;;;;;;;;4.70;93.30;;;;;;5049961;28;19920;-71
2022/03/27 08:59:50;;;;;;;;;;;5.30;92.10;;;;;;5051646;28;20407;-72
2022/03/27 09:02:19;;;;;;;;;;;5.50;90.50;;;;;;5051084;28;19924;-74
2022/03/27 09:04:46;;;;;;;;;;;5.20;90.50;;;;;;5051025;28;19932;-72
2022/03/27 09:07:12;;;;;;;;;;;4.80;90.20;;;;;;5051190;28;20396;-72
2022/03/27 09:09:37;;;;;;;;;;;4.30;90.70;;;;;;5051292;28;19963;-73
2022/03/27 09:12:04;;;;;;;;;;;3.80;91.40;;;;;;5052049;28;19912;-72
2022/03/27 09:14:34;;;;;;;;;;;3.80;91.70;;;;;;5054100;28;19936;-73
2022/03/27 09:17:03;;;;;;;;;;;4.00;91.50;;;;;;5054110;28;19913;-72
2022/03/27 09:19:48;;;;;;;;;;;4.30;91.20;;;;;;5053947;28;20373;-72
2022/03/27 09:22:21;;;;;;;;;;;4.50;90.70;;;;;;5053957;28;19920;-72
2022/03/27 09:24:49;;;;;;;;;;;4.30;91.00;;;;;;5055432;28;19928;-72
2022/03/27 09:27:15;;;;;;;;;;;4.20;91.30;;;;;;5053771;28;19912;-73
2022/03/27 09:29:59;;;;;;;;;;;4.00;91.60;;;;;;5055328;28;20417;-72
2022/03/27 09:32:32;;;;;;;;;;;4.00;91.60;;;;;;5055280;28;20349;-72
2022/03/27 09:34:59;;;;;;;;;;;3.90;92.10;;;;;;5055309;28;19920;-74
2022/03/27 09:37:31;;;;;;;;;;;4.00;92.20;;;;;;5053640;28;19958;-72
2022/03/27 09:39:57;;;;;;;;;;;3.80;92.70;;;;;;5053875;28;19963;-72
2022/03/27 09:42:24;;;;;;;;;;;3.60;93.60;;;;;;5054053;28;20349;-72
2022/03/27 09:45:08;;;;;;;;;;;3.60;94.00;;;;;;5053307;28;19939;-72
2022/03/27 09:47:34;;;;;;;;;;;4.00;93.40;;;;;;5053657;28;19921;-72
2022/03/27 09:50:00;;;;;;;;;;;4.30;92.50;;;;;;5053362;28;20042;-72
2022/03/27 09:52:26;;;;;;;;;;;4.20;92.30;;;;;;5053289;28;19958;-72
2022/03/27 09:54:52;;;;;;;;;;;3.90;92.50;;;;;;5053509;28;19921;-72
2022/03/27 09:57:21;;;;;;;;;;;3.80;93.00;;;;;;5054560;28;20269;-72
2022/03/27 09:59:47;;;;;;;;;;;3.90;92.30;;;;;;5054724;28;19916;-72
2022/03/27 10:02:21;;;;;;;;;;;4.00;92.10;;;;;;5053003;28;20341;-73
2022/03/27 10:04:53;;;;;;;;;;;4.30;92.30;;;;;;5052888;28;19925;-72
2022/03/27 10:07:19;;;;;;;;;;;4.60;91.70;;;;;;5053333;28;20003;-72
2022/03/27 10:09:44;;;;;;;;;;;5.10;91.60;;;;;;5054240;28;20011;-71
2022/03/27 10:12:12;;;;;;;;;;;5.50;91.20;;;;;;5053975;28;19920;-73
2022/03/27 10:14:38;;;;;;;;;;;5.60;90.70;;;;;;5052939;28;20007;-73
2022/03/27 10:17:05;;;;;;;;;;;5.50;91.10;;;;;;5052874;28;19916;-73
2022/03/27 10:19:36;;;;;;;;;;;5.60;90.20;;;;;;5052912;28;20287;-72
2022/03/27 10:22:02;;;;;;;;;;;5.60;90.60;;;;;;5052911;28;19909;-73
2022/03/27 10:24:31;;;;;;;;;;;6.10;90.10;;;;;;5053386;28;19924;-72
2022/03/27 10:27:02;;;;;;;;;;;6.40;89.50;;;;;;5052888;28;19974;-72
2022/03/27 10:29:29;;;;;;;;;;;6.70;87.70;;;;;;5054240;28;19971;-72
2022/03/27 10:31:56;;;;;;;;;;;7.30;86.60;;;;;;5053917;28;19909;-72
2022/03/27 10:34:23;;;;;;;;;;;7.70;83.50;;;;;;5052701;28;19964;-72
2022/03/27 10:36:55;;;;;;;;;;;8.20;81.50;;;;;;5052869;28;19915;-73
2022/03/27 10:39:24;;;;;;;;;;;8.30;80.20;;;;;;5053841;28;19917;-72
2022/03/27 10:42:09;;;;;;;;;;;8.70;77.50;;;;;;5053984;28;20004;-74
2022/03/27 10:44:45;;;;;;;;;;;8.80;76.00;;;;;;5052386;28;20020;-73
2022/03/27 10:47:12;;;;;;;;;;;8.80;74.90;;;;;;5052433;28;19909;-72
2022/03/27 10:49:37;;;;;;;;;;;8.70;73.80;;;;;;5052372;28;19916;-72
2022/03/27 10:52:04;;;;;;;;;;;8.80;73.90;;;;;;5052267;28;19917;-73
2022/03/27 10:54:30;;;;;;;;;;;8.80;73.00;;;;;;5053600;28;20392;-73
2022/03/27 10:56:56;;;;;;;;;;;8.80;71.20;;;;;;5052265;28;20004;-73
2022/03/27 10:59:26;;;;;;;;;;;8.30;71.50;;;;;;5053469;28;19920;-72
2022/03/27 11:01:53;;;;;;;;;;;7.10;69.20;;;;;;5053312;28;19912;-74
2022/03/27 11:04:34;;;;;;;;;;;8.40;68.60;;;;;;5052980;28;20016;-72
2022/03/27 11:07:32;;;;;;;;;;;8.20;70.30;;;;;;5051909;28;19908;-73
2022/03/27 11:09:58;;;;;;;;;;;8.40;70.10;;;;;;5030154;28;19963;-74
2022/03/27 11:12:28;;;;;;;;;;;8.70;68.60;;;;;;5053352;28;19963;-72
2022/03/27 11:14:55;;;;;;;;;;;8.50;66.60;;;;;;5053438;28;20035;-73
2022/03/27 11:17:40;;;;;;;;;;;8.10;66.00;;;;;;5052081;28;19935;-72
2022/03/27 11:20:31;;;;;;;;;;;8.40;65.40;;;;;;5051520;28;19920;-72
2022/03/27 11:22:59;;;;;;;;;;;9.20;64.10;;;;;;5051576;28;20288;-72
2022/03/27 11:25:28;;;;;;;;;;;9.50;61.80;;;;;;5051801;28;19927;-73
2022/03/27 11:27:56;;;;;;;;;;;8.90;61.80;;;;;;5052905;28;19921;-72
2022/03/27 11:30:22;;;;;;;;;;;8.20;62.70;;;;;;5053172;28;19986;-74
2022/03/27 11:33:07;;;;;;;;;;;7.50;64.80;;;;;;5051549;28;19915;-74
2022/03/27 11:35:32;;;;;;;;;;;7.20;66.10;;;;;;5053112;28;19923;-72
2022/03/27 11:38:18;;;;;;;;;;;7.10;67.50;;;;;;5052666;28;19912;-73
2022/03/27 11:40:44;;;;;;;;;;;7.30;67.20;;;;;;5053120;28;19916;-73
2022/03/27 11:43:29;;;;;;;;;;;7.40;65.40;;;;;;5051338;28;19916;-73
2022/03/27 11:45:56;;;;;;;;;;;7.70;64.20;;;;;;5051343;28;19947;-73
2022/03/27 11:48:22;;;;;;;;;;;8.20;61.80;;;;;;5052463;28;19912;-73
2022/03/27 11:50:49;;;;;;;;;;;8.50;60.40;;;;;;5052810;28;19923;-73
2022/03/27 11:53:15;;;;;;;;;;;8.60;60.30;;;;;;5051673;28;19916;-72
2022/03/27 11:55:41;;;;;;;;;;;8.50;60.30;;;;;;5052883;28;19928;-72
2022/03/27 11:58:11;;;;;;;;;;;8.20;61.00;;;;;;5052619;28;20206;-71
2022/03/27 12:00:44;;;;;;;;;;;7.60;62.40;;;;;;5052280;28;19920;-75
2022/03/27 12:03:21;;;;;;;;;;;7.30;63.60;;;;;;5052248;28;20261;-72
2022/03/27 12:05:50;;;;;;;;;;;7.00;64.80;;;;;;5050634;28;19932;-74
2022/03/27 12:08:19;;;;;;;;;;;6.60;66.10;;;;;;5050898;28;19952;-73
2022/03/27 12:10:49;;;;;;;;;;;6.50;66.90;;;;;;5052729;28;19967;-73
2022/03/27 12:13:15;;;;;;;;;;;6.40;67.20;;;;;;5052256;28;20372;-73
2022/03/27 12:15:52;;;;;;;;;;;6.30;67.40;;;;;;5050864;28;20287;-73
2022/03/27 12:18:34;;;;;;;;;;;6.10;68.40;;;;;;5052075;28;20007;-72
2022/03/27 12:21:01;;;;;;;;;;;6.10;68.70;;;;;;5052473;28;20316;-73
2022/03/27 12:23:34;;;;;;;;;;;6.70;68.70;;;;;;5050813;28;19913;-73
2022/03/27 12:26:00;;;;;;;;;;;6.00;67.30;;;;;;5052483;28;19920;-74
2022/03/27 12:31:23;;;;;;;;;;;6.00;67.90;;;;;;5051859;28;19978;-73
2022/03/27 12:33:50;;;;;;;;;;;5.90;68.60;;;;;;5050567;28;19909;-73
2022/03/27 12:36:16;;;;;;;;;;;6.10;68.90;;;;;;5050426;28;19912;-73
2022/03/27 12:38:42;;;;;;;;;;;6.30;68.60;;;;;;5051801;28;19909;-74
2022/03/27 12:41:10;;;;;;;;;;;6.50;67.40;;;;;;5051825;28;20024;-73
2022/03/27 12:43:36;;;;;;;;;;;6.50;67.00;;;;;;5050382;28;19978;-72
2022/03/27 12:46:31;;;;;;;;;;;6.60;67.00;;;;;;5051716;28;20070;-72
2022/03/27 12:49:02;;;;;;;;;;;6.80;68.00;;;;;;5037187;28;19913;-72
2022/03/27 12:51:28;;;;;;;;;;;7.10;67.90;;;;;;5049999;28;19913;-74
2022/03/27 12:54:02;;;;;;;;;;;7.30;67.40;;;;;;5051770;28;19908;-72
2022/03/27 12:56:30;;;;;;;;;;;7.40;66.80;;;;;;5051400;28;20000;-73
2022/03/27 12:58:56;;;;;;;;;;;7.20;65.50;;;;;;5050567;28;19913;-73
2022/03/27 13:01:26;;;;;;;;;;;7.10;64.30;;;;;;5049923;28;19908;-72
2022/03/27 13:04:01;;;;;;;;;;;6.90;64.40;;;;;;5049779;28;19971;-72
2022/03/27 13:06:43;;;;;;;;;;;6.70;65.50;;;;;;5050072;28;19912;-72
2022/03/27 13:09:10;;;;;;;;;;;6.70;66.50;;;;;;5051319;28;19925;-74
2022/03/27 13:11:42;;;;;;;;;;;6.80;66.10;;;;;;5051248;28;20305;-73
2022/03/27 13:14:09;;;;;;;;;;;7.10;65.50;;;;;;5049967;28;20311;-72
2022/03/27 13:16:40;;;;;;;;;;;7.30;64.40;;;;;;5049982;28;19963;-73
2022/03/27 13:19:08;;;;;;;;;;;7.50;63.00;;;;;;5050146;28;19971;-73
2022/03/27 13:21:34;;;;;;;;;;;7.50;61.90;;;;;;5051273;28;20335;-72
2022/03/27 13:24:01;;;;;;;;;;;7.10;62.00;;;;;;5051291;28;19974;-73
2022/03/27 13:26:26;;;;;;;;;;;6.80;62.90;;;;;;5051027;28;20371;-73
2022/03/27 13:28:52;;;;;;;;;;;6.50;63.30;;;;;;5051061;28;19913;-73
2022/03/27 13:31:18;;;;;;;;;;;6.50;63.50;;;;;;5049683;28;20008;-73
2022/03/27 13:33:44;;;;;;;;;;;6.40;63.80;;;;;;5051040;28;20047;-73
2022/03/27 13:36:10;;;;;;;;;;;6.20;64.20;;;;;;5051202;28;19913;-75
2022/03/27 13:38:36;;;;;;;;;;;6.20;64.90;;;;;;5050124;28;19923;-72
2022/03/27 13:43:47;;;;;;;;;;;6.40;65.20;;;;;;5051085;28;20337;-73
2022/03/27 13:46:13;;;;;;;;;;;6.40;64.90;;;;;;5049640;28;19916;-73
2022/03/27 13:48:39;;;;;;;;;;;6.60;64.80;;;;;;5033115;28;19924;-71
2022/03/27 13:51:04;;;;;;;;;;;6.60;64.60;;;;;;5049949;28;19916;-72
2022/03/27 13:53:30;;;;;;;;;;;6.60;64.80;;;;;;5049607;28;20353;-73
2022/03/27 13:55:56;;;;;;;;;;;6.50;62.90;;;;;;5051452;28;19921;-73
2022/03/27 13:58:22;;;;;;;;;;;6.50;62.70;;;;;;5049560;28;19920;-74
2022/03/27 14:00:48;;;;;;;;;;;6.40;63.00;;;;;;5054192;28;19923;-72
2022/03/27 14:03:15;;;;;;;;;;;6.10;64.20;;;;;;5054383;28;19909;-73
2022/03/27 14:05:42;;;;;;;;;;;6.10;65.30;;;;;;5052949;28;19925;-72
2022/03/27 14:08:09;;;;;;;;;;;5.90;65.70;;;;;;5054243;28;19912;-71
2022/03/27 14:10:35;;;;;;;;;;;5.70;66.30;;;;;;5054697;28;19924;-73
2022/03/27 14:13:01;;;;;;;;;;;5.70;66.90;;;;;;5054384;28;19916;-72
2022/03/27 14:15:27;;;;;;;;;;;5.60;67.20;;;;;;5054530;28;20367;-74
2022/03/27 14:17:54;;;;;;;;;;;6.70;67.70;;;;;;5052685;28;20026;-73
2022/03/27 14:20:20;;;;;;;;;;;6.00;66.90;;;;;;5054722;28;19913;-73
2022/03/27 14:22:46;;;;;;;;;;;6.10;66.00;;;;;;5052878;28;19967;-73
2022/03/27 14:25:12;;;;;;;;;;;6.10;65.80;;;;;;5054591;28;19917;-72
2022/03/27 14:27:40;;;;;;;;;;;6.10;65.60;;;;;;5053935;28;19919;-72
2022/03/27 14:30:09;;;;;;;;;;;6.00;65.70;;;;;;5053867;28;19913;-73
2022/03/27 14:32:38;;;;;;;;;;;5.90;65.90;;;;;;5053962;28;19930;-73
2022/03/27 14:35:05;;;;;;;;;;;5.70;66.10;;;;;;5054406;28;20269;-74
2022/03/27 14:37:31;;;;;;;;;;;5.70;65.50;;;;;;5054191;28;19912;-74
2022/03/27 14:39:59;;;;;;;;;;;5.60;65.80;;;;;;5054165;28;20352;-73
2022/03/27 14:42:25;;;;;;;;;;;5.50;65.00;;;;;;5052449;28;20379;-73